createdAt,value
2023-03-06T00:01:33.026Z,2.18
2023-03-06T00:03:59.411Z,2.16
2023-03-06T00:06:25.909Z,2.08
2023-03-06T00:08:52.375Z,2.01
2023-03-06T00:11:18.782Z,2.02
2023-03-06T00:13:45.211Z,1.98
2023-03-06T00:16:11.685Z,2.00
2023-03-06T00:18:38.065Z,2.00
2023-03-06T00:21:07.724Z,1.98
2023-03-06T00:23:34.253Z,1.93
2023-03-06T00:26:00.646Z,1.89
2023-03-06T00:28:27.203Z,1.88
2023-03-06T00:30:53.613Z,1.95
2023-03-06T00:33:19.970Z,1.95
2023-03-06T00:35:46.361Z,1.95
2023-03-06T00:38:14.682Z,1.96
2023-03-06T00:40:41.293Z,2.00
2023-03-06T00:43:07.736Z,2.00
2023-03-06T00:45:34.215Z,2.04
2023-03-06T00:48:00.801Z,1.97
2023-03-06T00:50:27.729Z,1.96
2023-03-06T00:52:54.461Z,1.99
2023-03-06T00:55:20.874Z,1.99
2023-03-06T00:57:47.288Z,1.94
2023-03-06T01:00:14.690Z,1.92
2023-03-06T01:02:41.588Z,1.92
2023-03-06T01:05:09.118Z,1.90
2023-03-06T01:07:36.920Z,1.90
2023-03-06T01:10:07.838Z,1.90
2023-03-06T01:12:34.344Z,1.87
2023-03-06T01:15:00.696Z,1.88
2023-03-06T01:17:27.145Z,1.87
2023-03-06T01:19:53.496Z,1.84
2023-03-06T01:22:19.855Z,1.86
2023-03-06T01:24:46.237Z,1.85
2023-03-06T01:27:12.742Z,1.82
2023-03-06T01:29:39.085Z,1.83
2023-03-06T01:32:05.907Z,1.83
2023-03-06T01:34:32.366Z,1.80
2023-03-06T01:36:58.886Z,1.81
2023-03-06T01:39:25.354Z,1.77
2023-03-06T01:41:51.732Z,1.75
2023-03-06T01:44:18.115Z,1.75
2023-03-06T01:46:45.469Z,1.74
2023-03-06T01:49:30.384Z,1.70
2023-03-06T01:52:08.132Z,1.64
2023-03-06T01:54:40.390Z,1.60
2023-03-06T01:57:17.864Z,1.54
2023-03-06T01:59:45.226Z,1.46
2023-03-06T02:02:14.048Z,1.41
2023-03-06T02:04:42.392Z,1.28
2023-03-06T02:07:09.662Z,1.21
2023-03-06T02:09:38.212Z,1.27
2023-03-06T02:12:14.259Z,1.28
2023-03-06T02:14:42.409Z,1.21
2023-03-06T02:17:10.240Z,1.18
2023-03-06T02:19:52.037Z,1.07
2023-03-06T02:22:18.809Z,0.98
2023-03-06T02:25:09.360Z,0.96
2023-03-06T02:27:35.932Z,1.00
2023-03-06T02:30:07.740Z,1.00
2023-03-06T02:32:34.192Z,0.92
2023-03-06T02:35:00.566Z,0.93
2023-03-06T02:37:28.872Z,0.96
2023-03-06T02:40:03.514Z,1.02
2023-03-06T02:42:30.077Z,1.12
2023-03-06T02:44:58.501Z,1.18
2023-03-06T02:47:25.059Z,1.25
2023-03-06T02:49:51.476Z,1.32
2023-03-06T02:52:18.151Z,1.40
2023-03-06T02:54:44.559Z,1.48
2023-03-06T02:57:11.017Z,1.52
2023-03-06T02:59:37.359Z,1.63
2023-03-06T03:02:03.821Z,1.70
2023-03-06T03:04:30.278Z,1.73
2023-03-06T03:06:56.644Z,1.75
2023-03-06T03:09:22.990Z,1.77
2023-03-06T03:11:49.371Z,1.82
2023-03-06T03:14:16.669Z,1.83
2023-03-06T03:16:43.017Z,1.86
2023-03-06T03:19:09.343Z,1.89
2023-03-06T03:21:35.766Z,1.91
2023-03-06T03:24:02.333Z,1.94
2023-03-06T03:26:28.736Z,1.97
2023-03-06T03:28:55.143Z,2.01
2023-03-06T03:31:21.771Z,2.04
2023-03-06T03:33:48.163Z,2.09
2023-03-06T03:36:14.666Z,2.14
2023-03-06T03:38:41.072Z,2.16
2023-03-06T03:41:07.465Z,2.21
2023-03-06T03:43:34.069Z,2.23
2023-03-06T03:46:00.564Z,2.23
2023-03-06T03:48:27.008Z,2.27
2023-03-06T03:50:53.401Z,2.27
2023-03-06T03:53:19.804Z,2.28
2023-03-06T03:55:47.811Z,2.29
2023-03-06T03:58:14.241Z,2.28
2023-03-06T04:00:40.621Z,2.28
2023-03-06T04:03:06.986Z,2.28
2023-03-06T04:05:33.884Z,2.27
2023-03-06T04:08:03.031Z,2.30
2023-03-06T04:10:29.535Z,2.30
2023-03-06T04:12:56.899Z,2.31
2023-03-06T04:15:23.541Z,2.34
2023-03-06T04:17:49.972Z,2.36
2023-03-06T04:20:16.670Z,2.36
2023-03-06T04:22:43.075Z,2.36
2023-03-06T04:25:09.858Z,2.38
2023-03-06T04:27:36.239Z,2.38
2023-03-06T04:30:02.909Z,2.39
2023-03-06T04:32:29.369Z,2.41
2023-03-06T04:34:55.756Z,2.40
2023-03-06T04:37:24.905Z,2.42
2023-03-06T04:39:51.774Z,2.41
2023-03-06T04:42:18.606Z,2.43
2023-03-06T04:44:45.333Z,2.44
2023-03-06T04:47:12.308Z,2.44
2023-03-06T04:49:38.685Z,2.46
2023-03-06T04:52:05.273Z,2.48
2023-03-06T04:54:31.665Z,2.51
2023-03-06T04:56:58.045Z,2.54
2023-03-06T04:59:24.479Z,2.57
2023-03-06T05:01:50.891Z,2.59
2023-03-06T05:04:17.311Z,2.60
2023-03-06T05:06:43.859Z,2.62
2023-03-06T05:09:10.241Z,2.62
2023-03-06T05:11:36.725Z,2.59
2023-03-06T05:14:03.204Z,2.57
2023-03-06T05:16:29.549Z,2.54
2023-03-06T05:18:55.908Z,2.54
2023-03-06T05:21:22.452Z,2.55
2023-03-06T05:23:48.822Z,2.55
2023-03-06T05:26:15.971Z,2.55
2023-03-06T05:28:42.568Z,2.56
2023-03-06T05:31:09.373Z,2.54
2023-03-06T05:33:36.609Z,2.55
2023-03-06T05:36:03.528Z,2.57
2023-03-06T05:38:29.926Z,2.56
2023-03-06T05:40:56.300Z,2.57
2023-03-06T05:43:22.738Z,2.55
2023-03-06T05:45:50.508Z,2.54
2023-03-06T05:48:17.004Z,2.52
2023-03-06T05:50:43.416Z,2.48
2023-03-06T05:53:09.897Z,2.42
2023-03-06T05:55:36.278Z,2.41
2023-03-06T05:58:02.887Z,2.36
2023-03-06T06:00:29.296Z,2.33
2023-03-06T06:02:55.640Z,2.30
2023-03-06T06:05:21.978Z,2.27
2023-03-06T06:07:48.457Z,2.27
2023-03-06T06:10:15.259Z,2.26
2023-03-06T06:12:41.750Z,2.27
2023-03-06T06:15:08.459Z,2.32
2023-03-06T06:17:34.813Z,2.40
2023-03-06T06:20:01.326Z,2.47
2023-03-06T06:22:27.731Z,2.52
2023-03-06T06:24:54.229Z,2.58
2023-03-06T06:27:20.816Z,2.61
2023-03-06T06:29:50.821Z,2.66
2023-03-06T06:32:17.317Z,2.67
2023-03-06T06:34:46.733Z,2.65
2023-03-06T06:37:13.323Z,2.68
2023-03-06T06:39:41.113Z,2.73
2023-03-06T06:42:28.571Z,2.77
2023-03-06T06:44:55.043Z,2.81
2023-03-06T06:47:24.188Z,2.86
2023-03-06T06:49:56.024Z,2.91
2023-03-06T06:52:23.958Z,2.97
2023-03-06T06:54:50.883Z,3.03
2023-03-06T06:57:17.483Z,3.10
2023-03-06T06:59:46.460Z,3.12
2023-03-06T07:02:15.624Z,3.11
2023-03-06T07:04:52.734Z,3.12
2023-03-06T07:07:25.344Z,3.12
2023-03-06T07:09:51.888Z,3.15
2023-03-06T07:12:18.442Z,3.23
2023-03-06T07:14:44.803Z,3.23
2023-03-06T07:17:11.179Z,3.26
2023-03-06T07:19:38.676Z,3.34
2023-03-06T07:22:07.529Z,3.40
2023-03-06T07:24:34.161Z,3.54
2023-03-06T07:27:00.549Z,3.75
2023-03-06T07:29:27.150Z,4.00
2023-03-06T07:31:53.607Z,4.23
2023-03-06T07:34:20.146Z,4.40
2023-03-06T07:36:46.622Z,4.51
2023-03-06T07:39:12.976Z,4.57
2023-03-06T07:41:39.348Z,4.65
2023-03-06T07:44:05.807Z,4.81
2023-03-06T07:46:32.363Z,5.12
2023-03-06T07:48:58.909Z,5.97
2023-03-06T07:51:25.449Z,6.82
2023-03-06T07:53:51.877Z,7.33
2023-03-06T07:56:18.342Z,7.64
2023-03-06T07:58:46.340Z,7.72
2023-03-06T08:01:15.795Z,7.86
2023-03-06T08:03:42.750Z,8.87
2023-03-06T08:06:32.186Z,9.16
2023-03-06T08:08:59.326Z,8.74
2023-03-06T08:11:30.044Z,8.06
2023-03-06T08:13:57.838Z,7.63
2023-03-06T08:16:25.966Z,6.90
2023-03-06T08:18:52.412Z,6.65
2023-03-06T08:21:21.985Z,6.81
2023-03-06T08:23:48.871Z,6.77
2023-03-06T08:26:21.552Z,6.87
2023-03-06T08:28:48.107Z,7.32
2023-03-06T08:31:23.238Z,7.37
2023-03-06T08:33:49.837Z,7.60
2023-03-06T08:36:16.189Z,7.86
2023-03-06T08:38:42.682Z,7.85
2023-03-06T08:41:09.017Z,8.07
2023-03-06T08:43:36.079Z,8.47
2023-03-06T08:46:02.680Z,8.91
2023-03-06T08:48:29.306Z,8.96
2023-03-06T08:50:56.130Z,9.00
2023-03-06T08:53:36.651Z,9.56
2023-03-06T08:56:14.590Z,9.53
2023-03-06T08:58:40.936Z,10.90
2023-03-06T09:01:20.288Z,11.48
2023-03-06T09:03:47.133Z,12.00
2023-03-06T09:06:14.096Z,12.61
2023-03-06T09:08:43.235Z,12.65
2023-03-06T09:11:14.257Z,12.57
2023-03-06T09:13:41.986Z,13.04
2023-03-06T09:16:10.100Z,13.33
2023-03-06T09:18:36.834Z,13.40
2023-03-06T09:21:04.856Z,13.27
2023-03-06T09:23:31.582Z,12.61
2023-03-06T09:25:59.361Z,12.76
2023-03-06T09:28:25.955Z,13.22
2023-03-06T09:30:52.514Z,13.23
2023-03-06T09:33:19.621Z,14.02
2023-03-06T09:35:52.191Z,14.53
2023-03-06T09:38:19.783Z,14.68
2023-03-06T09:41:04.806Z,15.69
2023-03-06T09:43:35.916Z,15.96
2023-03-06T09:46:25.073Z,15.75
2023-03-06T09:49:10.413Z,16.32
2023-03-06T09:51:48.115Z,14.28
2023-03-06T09:54:16.141Z,12.50
2023-03-06T09:56:50.379Z,13.42
2023-03-06T09:59:21.549Z,14.86
2023-03-06T10:01:59.765Z,15.60
2023-03-06T10:04:43.461Z,15.74
2023-03-06T10:07:22.465Z,15.37
2023-03-06T10:10:15.972Z,15.04
2023-03-06T10:12:49.286Z,15.60
2023-03-06T10:15:36.099Z,15.27
2023-03-06T10:18:04.446Z,13.52
2023-03-06T10:20:41.315Z,12.45
2023-03-06T10:23:35.125Z,14.05
2023-03-06T10:26:07.072Z,15.33
2023-03-06T10:28:42.570Z,15.61
2023-03-06T10:31:23.298Z,15.68
2023-03-06T10:33:49.672Z,15.96
2023-03-06T10:36:18.288Z,15.15
2023-03-06T10:38:48.296Z,14.22
2023-03-06T10:41:14.623Z,13.26
2023-03-06T10:43:47.998Z,13.01
2023-03-06T10:46:27.732Z,13.61
2023-03-06T10:49:00.250Z,13.83
2023-03-06T10:51:28.728Z,15.03
2023-03-06T10:53:57.171Z,16.19
2023-03-06T10:56:39.158Z,17.07
2023-03-06T10:59:17.172Z,17.15
2023-03-06T11:01:45.222Z,17.85
2023-03-06T11:04:16.252Z,18.48
2023-03-06T11:06:43.005Z,18.53
2023-03-06T11:09:15.458Z,18.96
2023-03-06T11:11:41.884Z,18.40
2023-03-06T11:14:27.510Z,17.24
2023-03-06T11:16:54.193Z,17.59
2023-03-06T11:19:26.539Z,17.91
2023-03-06T11:22:16.488Z,18.32
2023-03-06T11:24:48.409Z,16.55
2023-03-06T11:27:34.714Z,15.24
2023-03-06T11:30:05.934Z,13.41
2023-03-06T11:33:01.329Z,12.50
2023-03-06T11:35:35.721Z,12.30
2023-03-06T11:38:13.072Z,12.57
2023-03-06T11:40:54.738Z,12.24
2023-03-06T11:43:47.359Z,12.42
2023-03-06T11:46:24.915Z,12.86
2023-03-06T11:49:05.583Z,12.30
2023-03-06T11:51:38.036Z,11.47
2023-03-06T11:54:04.749Z,12.08
2023-03-06T11:57:03.616Z,13.49
2023-03-06T11:59:36.923Z,13.50
2023-03-06T12:02:43.138Z,14.42
2023-03-06T12:05:29.829Z,13.30
2023-03-06T12:08:38.792Z,13.51
2023-03-06T12:16:58.505Z,11.27
2023-03-06T12:19:46.162Z,11.15
2023-03-06T12:22:39.026Z,11.60
2023-03-06T12:25:31.771Z,11.89
2023-03-06T12:28:19.472Z,11.25
2023-03-06T12:31:07.115Z,11.20
2023-03-06T12:34:27.879Z,11.76
2023-03-06T12:37:12.852Z,12.35
2023-03-06T12:40:09.876Z,12.02
2023-03-06T12:43:15.869Z,12.08
2023-03-06T12:45:44.253Z,12.88
2023-03-06T12:48:25.680Z,11.95
2023-03-06T12:50:52.804Z,11.26
2023-03-06T12:53:27.513Z,10.64
2023-03-06T12:55:55.649Z,10.89
2023-03-06T12:58:31.045Z,10.86
2023-03-06T13:01:26.320Z,11.62
2023-03-06T13:04:29.227Z,12.45
2023-03-06T13:07:28.084Z,12.47
2023-03-06T13:10:08.817Z,12.36
2023-03-06T13:12:39.464Z,12.99
2023-03-06T13:15:35.107Z,13.28
2023-03-06T13:18:22.327Z,12.15
2023-03-06T13:20:50.283Z,11.29
2023-03-06T13:23:42.932Z,11.31
2023-03-06T13:26:31.500Z,11.00
2023-03-06T13:28:58.485Z,10.80
2023-03-06T13:31:32.796Z,10.65
2023-03-06T13:34:00.206Z,10.48
2023-03-06T13:36:39.404Z,10.44
2023-03-06T13:39:10.177Z,10.78
2023-03-06T13:41:52.885Z,10.23
2023-03-06T13:44:24.926Z,10.06
2023-03-06T13:47:05.504Z,9.86
2023-03-06T13:49:33.570Z,9.97
2023-03-06T13:52:17.781Z,9.89
2023-03-06T13:55:25.364Z,9.74
2023-03-06T13:58:10.901Z,9.60
2023-03-06T14:00:55.655Z,9.35
2023-03-06T14:03:37.363Z,9.27
2023-03-06T14:06:35.407Z,9.26
2023-03-06T14:09:08.002Z,9.25
2023-03-06T14:11:36.250Z,9.11
2023-03-06T14:14:03.616Z,9.00
2023-03-06T14:16:48.875Z,8.93
2023-03-06T14:19:18.542Z,8.99
2023-03-06T14:21:44.913Z,8.92
2023-03-06T14:24:17.917Z,8.91
2023-03-06T14:26:50.349Z,8.82
2023-03-06T14:29:25.846Z,8.49
2023-03-06T14:31:55.338Z,8.34
2023-03-06T14:34:30.605Z,8.10
2023-03-06T14:37:05.651Z,7.81
2023-03-06T14:39:37.280Z,7.53
2023-03-06T14:42:25.015Z,7.49
2023-03-06T14:45:19.610Z,7.54
2023-03-06T14:47:50.905Z,7.67
2023-03-06T14:50:28.030Z,7.86
2023-03-06T14:53:06.680Z,7.95
2023-03-06T14:55:35.479Z,7.94
2023-03-06T14:58:15.341Z,7.80
2023-03-06T15:00:45.065Z,7.89
2023-03-06T15:03:19.282Z,7.87
2023-03-06T15:05:47.137Z,7.83
2023-03-06T15:08:17.665Z,7.70
2023-03-06T15:10:57.138Z,7.52
2023-03-06T15:13:26.491Z,7.42
2023-03-06T15:16:25.019Z,7.32
2023-03-06T15:18:55.903Z,7.46
2023-03-06T15:21:23.888Z,7.57
2023-03-06T15:23:52.712Z,7.59
2023-03-06T15:26:29.527Z,7.48
2023-03-06T15:29:09.050Z,7.31
2023-03-06T15:31:45.112Z,7.24
2023-03-06T15:34:11.448Z,7.24
2023-03-06T15:36:48.959Z,7.27
2023-03-06T15:39:41.381Z,7.13
2023-03-06T15:42:19.318Z,7.09
2023-03-06T15:45:15.929Z,7.02
2023-03-06T15:47:43.818Z,7.04
2023-03-06T15:50:20.628Z,7.10
2023-03-06T15:52:48.220Z,7.05
2023-03-06T15:55:17.129Z,7.05
2023-03-06T15:57:59.715Z,6.98
2023-03-06T16:00:29.268Z,6.95
2023-03-06T16:02:57.592Z,6.84
2023-03-06T16:05:25.745Z,6.74
2023-03-06T16:07:52.220Z,6.53
2023-03-06T16:10:21.716Z,6.32
2023-03-06T16:12:51.223Z,6.24
2023-03-06T16:15:29.113Z,6.25
2023-03-06T16:17:59.890Z,6.07
2023-03-06T16:20:28.510Z,5.96
2023-03-06T16:22:55.308Z,5.72
2023-03-06T16:25:23.592Z,5.50
2023-03-06T16:27:55.480Z,5.40
2023-03-06T16:30:23.222Z,5.28
2023-03-06T16:32:49.677Z,5.10
2023-03-06T16:35:18.369Z,5.03
2023-03-06T16:37:46.491Z,4.95
2023-03-06T16:40:32.242Z,4.83
2023-03-06T16:42:58.593Z,4.76
2023-03-06T16:45:25.010Z,4.81
2023-03-06T16:47:51.790Z,4.72
2023-03-06T16:50:30.060Z,4.77
2023-03-06T16:52:57.911Z,4.82
2023-03-06T16:55:26.387Z,4.80
2023-03-06T16:57:53.655Z,4.72
2023-03-06T17:00:22.412Z,4.62
2023-03-06T17:02:49.173Z,4.71
2023-03-06T17:05:15.749Z,4.68
2023-03-06T17:07:42.418Z,4.75
2023-03-06T17:10:12.440Z,4.76
2023-03-06T17:12:39.265Z,4.71
2023-03-06T17:15:07.024Z,4.63
2023-03-06T17:17:33.958Z,4.63
2023-03-06T17:20:00.918Z,4.61
2023-03-06T17:22:27.785Z,4.60
2023-03-06T17:24:54.410Z,4.64
2023-03-06T17:27:22.775Z,4.65
2023-03-06T17:29:49.217Z,4.61
2023-03-06T17:32:15.734Z,4.60
2023-03-06T17:34:42.265Z,4.59
2023-03-06T17:37:08.735Z,4.66
2023-03-06T17:39:37.250Z,4.69
2023-03-06T17:42:04.509Z,4.64
2023-03-06T17:44:32.141Z,4.63
2023-03-06T17:46:58.688Z,4.66
2023-03-06T17:49:25.330Z,4.66
2023-03-06T17:51:52.598Z,4.60
2023-03-06T17:54:19.144Z,4.55
2023-03-06T17:56:45.510Z,4.64
2023-03-06T17:59:11.874Z,4.67
2023-03-06T18:01:38.311Z,4.60
2023-03-06T18:04:04.876Z,4.59
2023-03-06T18:06:33.444Z,4.63
2023-03-06T18:09:00.728Z,4.58
2023-03-06T18:11:27.724Z,4.53
2023-03-06T18:13:54.146Z,4.46
2023-03-06T18:16:22.975Z,4.43
2023-03-06T18:18:56.757Z,4.39
2023-03-06T18:21:24.396Z,4.33
2023-03-06T18:23:51.134Z,4.31
2023-03-06T18:26:26.655Z,4.29
2023-03-06T18:29:01.221Z,4.28
2023-03-06T18:31:33.743Z,4.20
2023-03-06T18:34:03.667Z,4.08
2023-03-06T18:36:32.674Z,4.03
2023-03-06T18:39:01.971Z,3.97
2023-03-06T18:41:28.371Z,3.98
2023-03-06T18:43:56.276Z,3.94
2023-03-06T18:46:23.390Z,3.92
2023-03-06T18:48:50.108Z,3.93
2023-03-06T18:51:17.123Z,3.83
2023-03-06T18:53:44.021Z,3.76
2023-03-06T18:56:16.700Z,3.68
2023-03-06T18:58:44.261Z,3.66
2023-03-06T19:01:10.680Z,3.65
2023-03-06T19:03:37.537Z,3.67
2023-03-06T19:06:09.202Z,3.64
2023-03-06T19:08:37.004Z,3.62
2023-03-06T19:11:06.048Z,3.63
2023-03-06T19:13:32.650Z,3.55
2023-03-06T19:15:59.400Z,3.43
2023-03-06T19:18:27.555Z,3.43
2023-03-06T19:20:54.331Z,3.42
2023-03-06T19:23:22.066Z,3.45
2023-03-06T19:25:58.648Z,3.41
2023-03-06T19:28:25.859Z,3.42
2023-03-06T19:30:52.617Z,3.41
2023-03-06T19:33:19.749Z,3.40
2023-03-06T19:35:46.369Z,3.38
2023-03-06T19:38:13.714Z,3.33
2023-03-06T19:40:40.053Z,3.35
2023-03-06T19:43:06.494Z,3.35
2023-03-06T19:45:32.887Z,3.37
2023-03-06T19:48:00.907Z,3.37
2023-03-06T19:50:30.698Z,3.33
2023-03-06T19:52:57.545Z,3.30
2023-03-06T19:55:26.267Z,3.32
2023-03-06T19:57:53.047Z,3.32
2023-03-06T20:00:19.785Z,3.31
2023-03-06T20:02:46.219Z,3.28
2023-03-06T20:05:12.763Z,3.30
2023-03-06T20:07:39.114Z,3.30
2023-03-06T20:10:05.730Z,3.32
2023-03-06T20:12:33.181Z,3.30
2023-03-06T20:14:59.881Z,3.30
2023-03-06T20:17:26.574Z,3.32
2023-03-06T20:19:53.149Z,3.36
2023-03-06T20:22:19.767Z,3.38
2023-03-06T20:24:46.311Z,3.42
2023-03-06T20:27:13.024Z,3.43
2023-03-06T20:29:44.463Z,3.48
2023-03-06T20:32:11.793Z,3.50
2023-03-06T20:34:38.979Z,3.54
2023-03-06T20:37:09.323Z,3.57
2023-03-06T20:39:35.896Z,3.58
2023-03-06T20:42:03.721Z,3.60
2023-03-06T20:44:30.580Z,3.60
2023-03-06T20:46:57.052Z,3.65
2023-03-06T20:49:24.633Z,3.68
2023-03-06T20:51:52.001Z,3.73
2023-03-06T20:54:18.445Z,3.76
2023-03-06T20:56:48.058Z,3.79
2023-03-06T20:59:15.054Z,3.80
2023-03-06T21:01:44.080Z,3.81
2023-03-06T21:04:15.921Z,3.82
2023-03-06T21:06:46.863Z,3.85
2023-03-06T21:09:15.827Z,3.90
2023-03-06T21:11:42.467Z,3.93
2023-03-06T21:14:08.885Z,3.95
2023-03-06T21:16:35.927Z,4.00
2023-03-06T21:19:02.384Z,4.02
2023-03-06T21:21:31.370Z,4.07
2023-03-06T21:23:58.197Z,4.11
2023-03-06T21:26:26.957Z,4.13
2023-03-06T21:28:53.500Z,4.14
2023-03-06T21:31:22.153Z,4.15
2023-03-06T21:33:49.865Z,4.18
2023-03-06T21:36:18.580Z,4.22
2023-03-06T21:38:45.016Z,4.24
2023-03-06T21:41:14.998Z,4.30
2023-03-06T21:43:42.675Z,4.36
2023-03-06T21:46:09.505Z,4.38
2023-03-06T21:48:36.245Z,4.35
2023-03-06T21:51:10.797Z,4.35
2023-03-06T21:53:37.790Z,4.37
2023-03-06T21:56:04.859Z,4.38
2023-03-06T21:58:31.572Z,4.41
2023-03-06T22:00:58.047Z,4.43
2023-03-06T22:03:24.747Z,4.45
2023-03-06T22:05:52.222Z,4.46
2023-03-06T22:08:21.440Z,4.47
2023-03-06T22:10:48.946Z,4.50
2023-03-06T22:13:15.792Z,4.53
2023-03-06T22:15:52.934Z,4.52
2023-03-06T22:18:20.127Z,4.51
2023-03-06T22:20:46.728Z,4.50
2023-03-06T22:23:13.187Z,4.49
2023-03-06T22:25:39.516Z,4.47
2023-03-06T22:28:06.307Z,4.48
2023-03-06T22:30:32.787Z,4.49
2023-03-06T22:32:59.263Z,4.49
2023-03-06T22:35:25.724Z,4.49
2023-03-06T22:37:52.082Z,4.48
2023-03-06T22:40:18.860Z,4.47
2023-03-06T22:42:45.236Z,4.43
2023-03-06T22:45:11.834Z,4.39
2023-03-06T22:47:38.577Z,4.37
2023-03-06T22:50:06.573Z,4.35
2023-03-06T22:52:33.413Z,4.36
2023-03-06T22:54:59.788Z,4.32
2023-03-06T22:57:26.252Z,4.29
2023-03-06T22:59:52.629Z,4.27
2023-03-06T23:02:19.199Z,4.27
2023-03-06T23:04:52.119Z,4.28
2023-03-06T23:07:20.053Z,4.31
2023-03-06T23:09:49.128Z,4.31
2023-03-06T23:12:15.588Z,4.30
2023-03-06T23:14:42.113Z,4.27
2023-03-06T23:17:09.145Z,4.25
2023-03-06T23:19:35.614Z,4.24
2023-03-06T23:22:02.096Z,4.23
2023-03-06T23:24:28.671Z,4.23
2023-03-06T23:26:55.003Z,4.22
2023-03-06T23:29:21.381Z,4.24
2023-03-06T23:31:47.817Z,4.23
2023-03-06T23:34:14.247Z,4.22
2023-03-06T23:36:41.620Z,4.22
2023-03-06T23:39:08.484Z,4.21
2023-03-06T23:41:35.009Z,4.22
2023-03-06T23:44:01.386Z,4.25
2023-03-06T23:46:27.783Z,4.28
2023-03-06T23:48:54.394Z,4.29
2023-03-06T23:51:22.539Z,4.33
2023-03-06T23:53:58.300Z,4.35
2023-03-06T23:56:26.548Z,4.48
2023-03-06T23:58:53.247Z,4.56
